sensor_id;sensor_type;location;lat;lon;timestamp;pressure;altitude;pressure_sealevel;temperature;humidity
5609;BME280;2826;51.354;9.588;2023-05-10T00:00:24;97309.88;;;18.36;70.47
5609;BME280;2826;51.354;9.588;2023-05-10T00:02:50;97311.16;;;18.42;69.67
5609;BME280;2826;51.354;9.588;2023-05-10T00:05:17;97305.91;;;18.42;70.00
5609;BME280;2826;51.354;9.588;2023-05-10T00:07:44;97299.94;;;18.40;70.68
5609;BME280;2826;51.354;9.588;2023-05-10T00:10:11;97290.97;;;18.42;70.43
5609;BME280;2826;51.354;9.588;2023-05-10T00:12:39;97294.31;;;18.45;70.68
5609;BME280;2826;51.354;9.588;2023-05-10T00:15:06;97279.53;;;18.44;71.55
5609;BME280;2826;51.354;9.588;2023-05-10T00:17:33;97286.78;;;18.30;72.51
5609;BME280;2826;51.354;9.588;2023-05-10T00:20:00;97288.88;;;18.36;72.21
5609;BME280;2826;51.354;9.588;2023-05-10T00:22:26;97291.38;;;18.38;71.68
5609;BME280;2826;51.354;9.588;2023-05-10T00:24:53;97291.81;;;18.43;71.30
5609;BME280;2826;51.354;9.588;2023-05-10T00:27:19;97285.41;;;18.36;72.00
5609;BME280;2826;51.354;9.588;2023-05-10T00:29:47;97280.28;;;18.34;71.81
5609;BME280;2826;51.354;9.588;2023-05-10T00:32:14;97285.94;;;18.30;72.35
5609;BME280;2826;51.354;9.588;2023-05-10T00:34:42;97280.69;;;18.30;72.27
5609;BME280;2826;51.354;9.588;2023-05-10T00:37:08;97277.38;;;18.27;72.10
5609;BME280;2826;51.354;9.588;2023-05-10T00:39:35;97275.72;;;18.26;72.60
5609;BME280;2826;51.354;9.588;2023-05-10T00:42:02;97273.09;;;18.26;72.91
5609;BME280;2826;51.354;9.588;2023-05-10T00:44:30;97265.50;;;18.23;72.73
5609;BME280;2826;51.354;9.588;2023-05-10T00:46:59;97274.19;;;18.24;73.25
5609;BME280;2826;51.354;9.588;2023-05-10T00:49:26;97271.97;;;18.19;73.55
5609;BME280;2826;51.354;9.588;2023-05-10T00:51:52;97267.66;;;18.18;73.37
5609;BME280;2826;51.354;9.588;2023-05-10T00:54:19;97267.81;;;18.17;73.34
5609;BME280;2826;51.354;9.588;2023-05-10T00:56:46;97271.66;;;18.12;73.30
5609;BME280;2826;51.354;9.588;2023-05-10T00:59:14;97267.50;;;18.10;73.08
5609;BME280;2826;51.354;9.588;2023-05-10T01:01:41;97265.56;;;18.12;73.28
5609;BME280;2826;51.354;9.588;2023-05-10T01:04:10;97267.63;;;18.08;73.01
5609;BME280;2826;51.354;9.588;2023-05-10T01:06:38;97272.13;;;18.06;72.90
5609;BME280;2826;51.354;9.588;2023-05-10T01:09:04;97267.00;;;18.05;73.08
5609;BME280;2826;51.354;9.588;2023-05-10T01:11:31;97263.00;;;18.00;73.20
5609;BME280;2826;51.354;9.588;2023-05-10T01:13:58;97263.28;;;17.97;73.45
5609;BME280;2826;51.354;9.588;2023-05-10T01:16:26;97265.47;;;17.92;73.69
5609;BME280;2826;51.354;9.588;2023-05-10T01:18:54;97265.16;;;17.85;74.15
5609;BME280;2826;51.354;9.588;2023-05-10T01:21:28;97264.06;;;17.88;73.62
5609;BME280;2826;51.354;9.588;2023-05-10T01:24:14;97215.00;;;17.57;73.72
5609;BME280;2826;51.354;9.588;2023-05-10T01:27:04;97261.38;;;17.78;74.64
5609;BME280;2826;51.354;9.588;2023-05-10T01:32:40;97263.47;;;17.63;76.24
5609;BME280;2826;51.354;9.588;2023-05-10T01:35:16;97267.19;;;17.60;76.29
5609;BME280;2826;51.354;9.588;2023-05-10T01:37:47;97266.22;;;17.61;76.36
5609;BME280;2826;51.354;9.588;2023-05-10T01:40:19;97263.72;;;17.60;76.77
5609;BME280;2826;51.354;9.588;2023-05-10T01:42:51;97264.25;;;17.54;77.12
5609;BME280;2826;51.354;9.588;2023-05-10T01:45:24;97263.94;;;17.47;77.72
5609;BME280;2826;51.354;9.588;2023-05-10T01:47:59;97268.47;;;17.45;77.84
5609;BME280;2826;51.354;9.588;2023-05-10T01:50:30;97266.78;;;17.44;78.15
5609;BME280;2826;51.354;9.588;2023-05-10T01:52:59;97258.34;;;17.40;78.53
5609;BME280;2826;51.354;9.588;2023-05-10T01:55:29;97262.19;;;17.36;79.10
5609;BME280;2826;51.354;9.588;2023-05-10T01:58:01;97261.63;;;17.32;79.18
5609;BME280;2826;51.354;9.588;2023-05-10T02:00:29;97261.66;;;17.21;79.74
5609;BME280;2826;51.354;9.588;2023-05-10T02:03:00;97268.44;;;17.23;80.43
5609;BME280;2826;51.354;9.588;2023-05-10T02:05:28;97263.63;;;17.29;80.04
5609;BME280;2826;51.354;9.588;2023-05-10T02:07:59;97264.94;;;17.34;79.97
5609;BME280;2826;51.354;9.588;2023-05-10T02:10:27;97263.16;;;17.35;80.14
5609;BME280;2826;51.354;9.588;2023-05-10T02:12:54;97263.16;;;17.35;80.22
5609;BME280;2826;51.354;9.588;2023-05-10T02:15:23;97259.56;;;17.36;80.31
5609;BME280;2826;51.354;9.588;2023-05-10T02:17:50;97259.56;;;17.36;80.29
5609;BME280;2826;51.354;9.588;2023-05-10T02:20:20;97275.53;;;17.33;80.35
5609;BME280;2826;51.354;9.588;2023-05-10T02:22:49;97269.72;;;17.29;80.81
5609;BME280;2826;51.354;9.588;2023-05-10T02:25:17;97267.22;;;17.28;81.18
5609;BME280;2826;51.354;9.588;2023-05-10T02:27:46;97274.97;;;17.29;80.70
5609;BME280;2826;51.354;9.588;2023-05-10T02:30:14;97266.53;;;17.26;81.53
5609;BME280;2826;51.354;9.588;2023-05-10T02:32:41;97268.31;;;17.25;81.49
5609;BME280;2826;51.354;9.588;2023-05-10T02:35:09;97276.28;;;17.23;81.77
5609;BME280;2826;51.354;9.588;2023-05-10T02:37:38;97274.63;;;17.22;81.59
5609;BME280;2826;51.354;9.588;2023-05-10T02:40:07;97263.59;;;17.19;81.84
5609;BME280;2826;51.354;9.588;2023-05-10T02:42:37;97269.63;;;17.19;82.31
5609;BME280;2826;51.354;9.588;2023-05-10T02:45:07;97270.72;;;17.17;81.92
5609;BME280;2826;51.354;9.588;2023-05-10T02:47:35;97267.41;;;17.15;82.17
5609;BME280;2826;51.354;9.588;2023-05-10T02:50:02;97270.72;;;17.17;82.63
5609;BME280;2826;51.354;9.588;2023-05-10T02:52:40;97265.34;;;17.18;82.55
5609;BME280;2826;51.354;9.588;2023-05-10T02:55:09;97270.59;;;17.18;82.78
5609;BME280;2826;51.354;9.588;2023-05-10T02:57:41;97252.44;;;17.05;82.70
5609;BME280;2826;51.354;9.588;2023-05-10T03:00:10;97271.69;;;17.16;83.41
5609;BME280;2826;51.354;9.588;2023-05-10T03:02:37;97273.44;;;17.15;83.12
5609;BME280;2826;51.354;9.588;2023-05-10T03:05:04;97262.28;;;17.13;83.69
5609;BME280;2826;51.354;9.588;2023-05-10T03:07:31;97262.03;;;17.16;83.10
5609;BME280;2826;51.354;9.588;2023-05-10T03:10:00;97268.38;;;17.14;83.51
5609;BME280;2826;51.354;9.588;2023-05-10T03:12:40;97270.16;;;17.13;83.31
5609;BME280;2826;51.354;9.588;2023-05-10T03:15:14;97273.97;;;17.09;83.83
5609;BME280;2826;51.354;9.588;2023-05-10T03:17:47;97267.31;;;17.05;83.98
5609;BME280;2826;51.354;9.588;2023-05-10T03:20:22;97270.03;;;17.03;84.36
5609;BME280;2826;51.354;9.588;2023-05-10T03:22:54;97271.09;;;17.01;84.18
5609;BME280;2826;51.354;9.588;2023-05-10T03:25:24;97276.72;;;16.96;84.40
5609;BME280;2826;51.354;9.588;2023-05-10T03:27:53;97282.91;;;16.95;84.70
5609;BME280;2826;51.354;9.588;2023-05-10T03:30:22;97281.63;;;16.89;85.42
5609;BME280;2826;51.354;9.588;2023-05-10T03:32:48;97276.16;;;16.81;85.59
5609;BME280;2826;51.354;9.588;2023-05-10T03:35:16;97286.28;;;16.74;86.50
5609;BME280;2826;51.354;9.588;2023-05-10T03:37:43;97292.94;;;16.67;86.50
5609;BME280;2826;51.354;9.588;2023-05-10T03:40:10;97293.19;;;16.64;86.16
5609;BME280;2826;51.354;9.588;2023-05-10T03:42:41;97290.84;;;16.61;86.14
5609;BME280;2826;51.354;9.588;2023-05-10T03:45:09;97297.38;;;16.55;86.74
5609;BME280;2826;51.354;9.588;2023-05-10T03:47:35;97294.63;;;16.56;86.63
5609;BME280;2826;51.354;9.588;2023-05-10T03:50:02;97299.25;;;16.53;86.87
5609;BME280;2826;51.354;9.588;2023-05-10T03:52:29;97296.91;;;16.50;86.76
5609;BME280;2826;51.354;9.588;2023-05-10T03:54:57;97301.53;;;16.46;87.55
5609;BME280;2826;51.354;9.588;2023-05-10T03:57:24;97304.16;;;16.46;87.09
5609;BME280;2826;51.354;9.588;2023-05-10T03:59:52;97313.31;;;16.40;87.55
5609;BME280;2826;51.354;9.588;2023-05-10T04:02:18;97311.91;;;16.36;87.52
5609;BME280;2826;51.354;9.588;2023-05-10T04:04:45;97307.22;;;16.28;87.69
5609;BME280;2826;51.354;9.588;2023-05-10T04:07:11;97319.03;;;16.23;88.50
5609;BME280;2826;51.354;9.588;2023-05-10T04:09:39;97315.78;;;16.19;88.72
5609;BME280;2826;51.354;9.588;2023-05-10T04:12:05;97316.84;;;16.16;88.19
5609;BME280;2826;51.354;9.588;2023-05-10T04:14:32;97314.13;;;16.06;88.24
5609;BME280;2826;51.354;9.588;2023-05-10T04:17:00;97328.75;;;16.09;88.34
5609;BME280;2826;51.354;9.588;2023-05-10T04:19:29;97326.72;;;16.13;87.79
5609;BME280;2826;51.354;9.588;2023-05-10T04:21:55;97328.97;;;16.06;88.02
5609;BME280;2826;51.354;9.588;2023-05-10T04:24:22;97322.31;;;16.02;87.88
5609;BME280;2826;51.354;9.588;2023-05-10T04:26:48;97326.84;;;16.00;88.20
5609;BME280;2826;51.354;9.588;2023-05-10T04:29:14;97329.19;;;16.03;87.60
5609;BME280;2826;51.354;9.588;2023-05-10T04:31:41;97339.06;;;15.99;87.79
5609;BME280;2826;51.354;9.588;2023-05-10T04:34:09;97339.84;;;15.88;87.91
5609;BME280;2826;51.354;9.588;2023-05-10T04:36:35;97348.63;;;15.87;88.03
5609;BME280;2826;51.354;9.588;2023-05-10T04:39:03;97316.84;;;15.69;88.19
5609;BME280;2826;51.354;9.588;2023-05-10T04:41:30;97349.59;;;15.86;88.19
5609;BME280;2826;51.354;9.588;2023-05-10T04:43:56;97352.31;;;15.85;88.28
5609;BME280;2826;51.354;9.588;2023-05-10T04:46:41;97351.84;;;15.91;87.68
5609;BME280;2826;51.354;9.588;2023-05-10T04:49:10;97352.06;;;15.88;88.11
5609;BME280;2826;51.354;9.588;2023-05-10T04:51:36;97353.97;;;15.86;88.18
5609;BME280;2826;51.354;9.588;2023-05-10T04:54:03;97355.53;;;15.88;88.11
5609;BME280;2826;51.354;9.588;2023-05-10T04:56:29;97356.00;;;15.93;87.57
5609;BME280;2826;51.354;9.588;2023-05-10T04:58:56;97363.03;;;15.93;87.68
5609;BME280;2826;51.354;9.588;2023-05-10T05:01:22;97366.28;;;15.97;87.36
5609;BME280;2826;51.354;9.588;2023-05-10T05:03:49;97364.88;;;16.04;87.07
5609;BME280;2826;51.354;9.588;2023-05-10T05:06:19;97334.13;;;15.83;87.33
5609;BME280;2826;51.354;9.588;2023-05-10T05:08:46;97370.34;;;16.12;87.37
5609;BME280;2826;51.354;9.588;2023-05-10T05:11:14;97367.03;;;16.10;87.24
5609;BME280;2826;51.354;9.588;2023-05-10T05:13:40;97376.91;;;16.06;87.24
5609;BME280;2826;51.354;9.588;2023-05-10T05:16:07;97376.53;;;16.11;87.01
5609;BME280;2826;51.354;9.588;2023-05-10T05:18:33;97374.03;;;16.10;87.28
5609;BME280;2826;51.354;9.588;2023-05-10T05:21:00;97384.59;;;16.08;86.73
5609;BME280;2826;51.354;9.588;2023-05-10T05:23:28;97385.06;;;16.02;86.25
5609;BME280;2826;51.354;9.588;2023-05-10T05:25:55;97391.69;;;15.94;87.05
5609;BME280;2826;51.354;9.588;2023-05-10T05:28:22;97394.81;;;16.00;87.06
5609;BME280;2826;51.354;9.588;2023-05-10T05:30:48;97395.53;;;16.02;87.50
5609;BME280;2826;51.354;9.588;2023-05-10T05:33:15;97393.41;;;16.07;87.46
5609;BME280;2826;51.354;9.588;2023-05-10T05:35:42;97399.84;;;16.14;86.37
5609;BME280;2826;51.354;9.588;2023-05-10T05:38:13;97401.03;;;16.10;86.60
5609;BME280;2826;51.354;9.588;2023-05-10T05:40:40;97401.88;;;16.11;86.53
5609;BME280;2826;51.354;9.588;2023-05-10T05:43:07;97366.56;;;15.80;86.42
5609;BME280;2826;51.354;9.588;2023-05-10T05:45:34;97405.53;;;16.08;86.33
5609;BME280;2826;51.354;9.588;2023-05-10T05:48:00;97406.38;;;16.09;86.73
5609;BME280;2826;51.354;9.588;2023-05-10T05:50:27;97409.19;;;15.94;87.16
5609;BME280;2826;51.354;9.588;2023-05-10T05:52:54;97408.50;;;16.03;86.78
5609;BME280;2826;51.354;9.588;2023-05-10T05:55:21;97415.88;;;16.10;86.00
5609;BME280;2826;51.354;9.588;2023-05-10T05:57:50;97422.16;;;16.07;86.36
5609;BME280;2826;51.354;9.588;2023-05-10T06:00:17;97422.16;;;15.96;86.97
5609;BME280;2826;51.354;9.588;2023-05-10T06:02:44;97427.78;;;15.89;87.68
5609;BME280;2826;51.354;9.588;2023-05-10T06:05:11;97429.56;;;15.89;87.91
5609;BME280;2826;51.354;9.588;2023-05-10T06:07:39;97441.91;;;15.87;88.06
5609;BME280;2826;51.354;9.588;2023-05-10T06:10:07;97442.00;;;15.85;88.44
5609;BME280;2826;51.354;9.588;2023-05-10T06:12:34;97445.78;;;15.81;89.09
5609;BME280;2826;51.354;9.588;2023-05-10T06:15:02;97445.31;;;15.76;90.18
5609;BME280;2826;51.354;9.588;2023-05-10T06:17:29;97441.25;;;15.72;90.05
5609;BME280;2826;51.354;9.588;2023-05-10T06:19:55;97454.19;;;15.73;89.65
5609;BME280;2826;51.354;9.588;2023-05-10T06:22:22;97456.53;;;15.65;90.16
5609;BME280;2826;51.354;9.588;2023-05-10T06:24:49;97458.66;;;15.60;90.33
5609;BME280;2826;51.354;9.588;2023-05-10T06:27:15;97463.38;;;15.54;90.99
5609;BME280;2826;51.354;9.588;2023-05-10T06:29:41;97462.59;;;15.65;90.45
5609;BME280;2826;51.354;9.588;2023-05-10T06:32:09;97472.00;;;15.68;89.69
5609;BME280;2826;51.354;9.588;2023-05-10T06:34:36;97471.00;;;15.58;89.06
5609;BME280;2826;51.354;9.588;2023-05-10T06:37:03;97465.38;;;15.51;89.61
5609;BME280;2826;51.354;9.588;2023-05-10T06:39:29;97468.69;;;15.53;90.09
5609;BME280;2826;51.354;9.588;2023-05-10T06:41:56;97476.13;;;15.59;89.81
5609;BME280;2826;51.354;9.588;2023-05-10T06:44:22;97476.13;;;15.59;90.67
5609;BME280;2826;51.354;9.588;2023-05-10T06:46:49;97476.63;;;15.64;90.87
5609;BME280;2826;51.354;9.588;2023-05-10T06:49:17;97481.00;;;15.64;90.32
5609;BME280;2826;51.354;9.588;2023-05-10T06:51:44;97486.88;;;15.54;90.06
5609;BME280;2826;51.354;9.588;2023-05-10T06:54:10;97486.19;;;15.39;91.31
5609;BME280;2826;51.354;9.588;2023-05-10T06:56:37;97491.41;;;15.39;91.85
5609;BME280;2826;51.354;9.588;2023-05-10T06:59:03;97490.72;;;15.37;90.94
5609;BME280;2826;51.354;9.588;2023-05-10T07:01:30;97492.78;;;15.32;91.23
5609;BME280;2826;51.354;9.588;2023-05-10T07:03:57;97496.59;;;15.28;90.15
5609;BME280;2826;51.354;9.588;2023-05-10T07:06:25;97494.72;;;15.17;90.46
5609;BME280;2826;51.354;9.588;2023-05-10T07:08:52;97501.81;;;15.15;91.12
5609;BME280;2826;51.354;9.588;2023-05-10T07:11:18;97495.22;;;15.09;92.67
5609;BME280;2826;51.354;9.588;2023-05-10T07:13:45;97495.97;;;15.11;93.31
5609;BME280;2826;51.354;9.588;2023-05-10T07:16:12;97500.75;;;15.18;93.13
5609;BME280;2826;51.354;9.588;2023-05-10T07:18:38;97504.72;;;15.23;93.34
5609;BME280;2826;51.354;9.588;2023-05-10T07:21:05;97502.22;;;15.35;93.39
5609;BME280;2826;51.354;9.588;2023-05-10T07:23:33;97504.78;;;15.48;93.43
5609;BME280;2826;51.354;9.588;2023-05-10T07:26:00;97511.25;;;15.55;92.87
5609;BME280;2826;51.354;9.588;2023-05-10T07:28:27;97511.41;;;15.65;92.62
5609;BME280;2826;51.354;9.588;2023-05-10T07:30:54;97514.88;;;15.65;91.58
5609;BME280;2826;51.354;9.588;2023-05-10T07:33:21;97515.81;;;15.64;91.98
5609;BME280;2826;51.354;9.588;2023-05-10T07:35:47;97516.81;;;15.75;91.39
5609;BME280;2826;51.354;9.588;2023-05-10T07:38:14;97519.00;;;15.81;90.56
5609;BME280;2826;51.354;9.588;2023-05-10T07:40:42;97523.88;;;15.99;90.58
5609;BME280;2826;51.354;9.588;2023-05-10T07:43:09;97521.22;;;16.12;88.52
5609;BME280;2826;51.354;9.588;2023-05-10T07:45:35;97522.50;;;16.42;87.86
5609;BME280;2826;51.354;9.588;2023-05-10T07:48:02;97531.50;;;16.62;87.24
5609;BME280;2826;51.354;9.588;2023-05-10T07:50:29;97529.75;;;16.85;87.14
5609;BME280;2826;51.354;9.588;2023-05-10T07:52:56;97531.34;;;17.11;86.11
5609;BME280;2826;51.354;9.588;2023-05-10T07:55:22;97535.19;;;17.30;84.05
5609;BME280;2826;51.354;9.588;2023-05-10T07:57:50;97542.22;;;17.41;83.79
5609;BME280;2826;51.354;9.588;2023-05-10T08:00:18;97549.59;;;17.47;82.08
5609;BME280;2826;51.354;9.588;2023-05-10T08:02:45;97551.72;;;17.53;80.91
5609;BME280;2826;51.354;9.588;2023-05-10T08:05:12;97552.69;;;17.52;80.34
5609;BME280;2826;51.354;9.588;2023-05-10T08:07:38;97549.25;;;17.52;82.18
5609;BME280;2826;51.354;9.588;2023-05-10T08:10:07;97557.81;;;17.65;82.45
5609;BME280;2826;51.354;9.588;2023-05-10T08:12:33;97562.06;;;17.77;81.16
5609;BME280;2826;51.354;9.588;2023-05-10T08:15:02;97562.53;;;17.83;81.02
5609;BME280;2826;51.354;9.588;2023-05-10T08:17:28;97556.34;;;17.84;79.07
5609;BME280;2826;51.354;9.588;2023-05-10T08:19:55;97562.06;;;17.77;78.92
5609;BME280;2826;51.354;9.588;2023-05-10T08:22:21;97563.25;;;17.73;76.46
5609;BME280;2826;51.354;9.588;2023-05-10T08:24:48;97562.91;;;17.78;76.42
5609;BME280;2826;51.354;9.588;2023-05-10T08:27:15;97560.63;;;17.85;74.28
5609;BME280;2826;51.354;9.588;2023-05-10T08:29:41;97568.28;;;17.76;72.50
5609;BME280;2826;51.354;9.588;2023-05-10T08:32:09;97570.03;;;17.76;74.37
5609;BME280;2826;51.354;9.588;2023-05-10T08:34:36;97567.66;;;17.84;74.00
5609;BME280;2826;51.354;9.588;2023-05-10T08:37:03;97577.56;;;17.92;73.00
5609;BME280;2826;51.354;9.588;2023-05-10T08:39:34;97570.16;;;17.97;72.86
5609;BME280;2826;51.354;9.588;2023-05-10T08:42:02;97561.31;;;18.10;72.26
5609;BME280;2826;51.354;9.588;2023-05-10T08:44:30;97570.13;;;18.20;73.44
5609;BME280;2826;51.354;9.588;2023-05-10T08:46:59;97570.00;;;18.22;71.24
5609;BME280;2826;51.354;9.588;2023-05-10T08:49:31;97575.38;;;18.20;72.13
5609;BME280;2826;51.354;9.588;2023-05-10T08:51:59;97575.31;;;18.32;71.93
5609;BME280;2826;51.354;9.588;2023-05-10T08:54:29;97578.94;;;18.52;72.92
5609;BME280;2826;51.354;9.588;2023-05-10T08:56:56;97574.53;;;18.52;69.69
5609;BME280;2826;51.354;9.588;2023-05-10T08:59:23;97582.28;;;18.54;69.69
5609;BME280;2826;51.354;9.588;2023-05-10T09:01:50;97580.00;;;18.49;68.17
5609;BME280;2826;51.354;9.588;2023-05-10T09:04:19;97586.81;;;18.52;68.83
5609;BME280;2826;51.354;9.588;2023-05-10T09:06:47;97584.59;;;18.68;70.86
5609;BME280;2826;51.354;9.588;2023-05-10T09:09:14;97592.66;;;18.77;69.81
5609;BME280;2826;51.354;9.588;2023-05-10T09:11:41;97596.78;;;18.91;67.82
5609;BME280;2826;51.354;9.588;2023-05-10T09:14:08;97593.38;;;19.00;67.64
5609;BME280;2826;51.354;9.588;2023-05-10T09:16:35;97593.59;;;19.09;68.69
5609;BME280;2826;51.354;9.588;2023-05-10T09:19:02;97589.41;;;19.27;66.81
5609;BME280;2826;51.354;9.588;2023-05-10T09:21:29;97599.03;;;19.38;65.29
5609;BME280;2826;51.354;9.588;2023-05-10T09:24:02;97606.16;;;19.26;64.18
5609;BME280;2826;51.354;9.588;2023-05-10T09:26:29;97605.25;;;19.37;65.47
5609;BME280;2826;51.354;9.588;2023-05-10T09:28:57;97601.59;;;19.28;62.84
5609;BME280;2826;51.354;9.588;2023-05-10T09:31:25;97608.66;;;19.06;63.36
5609;BME280;2826;51.354;9.588;2023-05-10T09:34:09;97609.31;;;18.87;64.12
5609;BME280;2826;51.354;9.588;2023-05-10T09:36:36;97615.28;;;18.89;65.95
5609;BME280;2826;51.354;9.588;2023-05-10T09:39:04;97611.91;;;18.99;65.01
5609;BME280;2826;51.354;9.588;2023-05-10T09:41:30;97618.63;;;18.91;63.13
5609;BME280;2826;51.354;9.588;2023-05-10T09:43:58;97620.34;;;18.81;63.87
5609;BME280;2826;51.354;9.588;2023-05-10T09:46:25;97618.25;;;18.75;64.58
5609;BME280;2826;51.354;9.588;2023-05-10T09:48:52;97610.38;;;18.75;65.70
5609;BME280;2826;51.354;9.588;2023-05-10T09:51:19;97623.31;;;18.88;65.21
5609;BME280;2826;51.354;9.588;2023-05-10T09:53:46;97628.88;;;18.94;64.70
5609;BME280;2826;51.354;9.588;2023-05-10T09:56:32;97623.50;;;18.96;65.41
5609;BME280;2826;51.354;9.588;2023-05-10T09:59:02;97627.25;;;19.15;65.57
5609;BME280;2826;51.354;9.588;2023-05-10T10:01:29;97630.56;;;19.17;64.39
5609;BME280;2826;51.354;9.588;2023-05-10T10:03:56;97621.13;;;18.93;64.96
5609;BME280;2826;51.354;9.588;2023-05-10T10:06:24;97634.88;;;18.64;65.29
5609;BME280;2826;51.354;9.588;2023-05-10T10:08:51;97596.72;;;17.93;67.29
5609;BME280;2826;51.354;9.588;2023-05-10T10:11:19;97635.72;;;17.97;68.03
5609;BME280;2826;51.354;9.588;2023-05-10T10:13:46;97644.53;;;17.85;69.61
5609;BME280;2826;51.354;9.588;2023-05-10T10:16:13;97640.59;;;18.02;71.36
5609;BME280;2826;51.354;9.588;2023-05-10T10:18:39;97638.44;;;18.30;70.81
5609;BME280;2826;51.354;9.588;2023-05-10T10:21:07;97634.06;;;18.52;69.49
5609;BME280;2826;51.354;9.588;2023-05-10T10:23:34;97643.13;;;18.80;69.07
5609;BME280;2826;51.354;9.588;2023-05-10T10:26:01;97637.44;;;18.97;65.61
5609;BME280;2826;51.354;9.588;2023-05-10T10:28:37;97636.84;;;19.04;67.31
5609;BME280;2826;51.354;9.588;2023-05-10T10:31:15;97629.75;;;19.16;67.60
5609;BME280;2826;51.354;9.588;2023-05-10T10:33:56;97629.53;;;19.29;64.23
5609;BME280;2826;51.354;9.588;2023-05-10T10:36:25;97612.22;;;19.27;63.41
5609;BME280;2826;51.354;9.588;2023-05-10T10:38:57;97630.44;;;19.71;62.11
5609;BME280;2826;51.354;9.588;2023-05-10T10:41:33;97632.88;;;19.94;61.74
5609;BME280;2826;51.354;9.588;2023-05-10T10:44:24;97636.78;;;20.00;60.98
5609;BME280;2826;51.354;9.588;2023-05-10T10:47:02;97629.75;;;20.10;59.10
5609;BME280;2826;51.354;9.588;2023-05-10T10:49:31;97626.03;;;20.13;60.71
5609;BME280;2826;51.354;9.588;2023-05-10T10:52:15;97626.75;;;20.34;58.34
5609;BME280;2826;51.354;9.588;2023-05-10T10:54:49;97635.09;;;20.49;58.60
5609;BME280;2826;51.354;9.588;2023-05-10T10:57:18;97630.91;;;20.86;57.81
5609;BME280;2826;51.354;9.588;2023-05-10T10:59:47;97629.22;;;21.25;57.60
5609;BME280;2826;51.354;9.588;2023-05-10T11:02:33;97624.88;;;21.44;54.77
5609;BME280;2826;51.354;9.588;2023-05-10T11:05:00;97617.72;;;21.64;56.21
5609;BME280;2826;51.354;9.588;2023-05-10T11:07:26;97622.66;;;21.87;53.06
5609;BME280;2826;51.354;9.588;2023-05-10T11:09:53;97626.31;;;21.76;54.08
5609;BME280;2826;51.354;9.588;2023-05-10T11:12:20;97625.09;;;21.98;55.15
5609;BME280;2826;51.354;9.588;2023-05-10T11:14:50;97626.38;;;22.12;53.80
5609;BME280;2826;51.354;9.588;2023-05-10T11:17:24;97621.06;;;22.22;53.03
5609;BME280;2826;51.354;9.588;2023-05-10T11:20:09;97618.88;;;22.17;51.81
5609;BME280;2826;51.354;9.588;2023-05-10T11:22:49;97617.13;;;22.08;53.62
5609;BME280;2826;51.354;9.588;2023-05-10T11:25:17;97608.31;;;22.17;52.02
5609;BME280;2826;51.354;9.588;2023-05-10T11:27:43;97622.34;;;22.18;54.17
5609;BME280;2826;51.354;9.588;2023-05-10T11:30:12;97621.28;;;21.83;52.73
5609;BME280;2826;51.354;9.588;2023-05-10T11:32:40;97629.00;;;21.56;53.95
5609;BME280;2826;51.354;9.588;2023-05-10T11:35:08;97624.41;;;21.58;53.31
5609;BME280;2826;51.354;9.588;2023-05-10T11:37:35;97621.00;;;21.86;54.07
5609;BME280;2826;51.354;9.588;2023-05-10T11:40:01;97620.81;;;21.97;53.09
5609;BME280;2826;51.354;9.588;2023-05-10T11:42:28;97599.28;;;21.92;53.39
5609;BME280;2826;51.354;9.588;2023-05-10T11:44:56;97614.28;;;22.19;51.68
5609;BME280;2826;51.354;9.588;2023-05-10T11:47:24;97618.31;;;22.60;51.96
5609;BME280;2826;51.354;9.588;2023-05-10T11:49:51;97618.63;;;22.57;48.46
5609;BME280;2826;51.354;9.588;2023-05-10T11:52:18;97625.53;;;22.22;46.12
5609;BME280;2826;51.354;9.588;2023-05-10T11:54:50;97628.13;;;22.03;44.69
5609;BME280;2826;51.354;9.588;2023-05-10T11:57:18;97593.28;;;22.00;45.17
5609;BME280;2826;51.354;9.588;2023-05-10T11:59:45;97620.16;;;22.60;45.79
5609;BME280;2826;51.354;9.588;2023-05-10T12:02:12;97620.19;;;22.86;47.51
5609;BME280;2826;51.354;9.588;2023-05-10T12:04:41;97617.91;;;22.91;46.47
5609;BME280;2826;51.354;9.588;2023-05-10T12:07:09;97619.69;;;23.09;44.37
5609;BME280;2826;51.354;9.588;2023-05-10T12:09:35;97620.91;;;23.41;44.42
5609;BME280;2826;51.354;9.588;2023-05-10T12:12:02;97617.41;;;23.67;43.88
5609;BME280;2826;51.354;9.588;2023-05-10T12:14:33;97619.63;;;24.23;44.11
5609;BME280;2826;51.354;9.588;2023-05-10T12:17:00;97620.16;;;24.60;42.61
5609;BME280;2826;51.354;9.588;2023-05-10T12:19:27;97613.88;;;24.78;42.99
5609;BME280;2826;51.354;9.588;2023-05-10T12:21:54;97623.97;;;24.41;43.64
5609;BME280;2826;51.354;9.588;2023-05-10T12:24:21;97621.69;;;24.03;44.14
5609;BME280;2826;51.354;9.588;2023-05-10T12:26:50;97626.91;;;23.78;44.76
5609;BME280;2826;51.354;9.588;2023-05-10T12:29:17;97623.81;;;23.56;45.41
5609;BME280;2826;51.354;9.588;2023-05-10T12:31:55;97619.91;;;22.89;44.46
5609;BME280;2826;51.354;9.588;2023-05-10T12:34:23;97633.66;;;22.56;45.27
5609;BME280;2826;51.354;9.588;2023-05-10T12:36:51;97626.56;;;22.29;46.48
5609;BME280;2826;51.354;9.588;2023-05-10T12:39:19;97642.84;;;22.06;46.83
5609;BME280;2826;51.354;9.588;2023-05-10T12:41:45;97651.56;;;21.78;48.24
5609;BME280;2826;51.354;9.588;2023-05-10T12:44:12;97650.00;;;21.48;49.09
5609;BME280;2826;51.354;9.588;2023-05-10T12:46:39;97645.44;;;21.30;49.75
5609;BME280;2826;51.354;9.588;2023-05-10T12:49:06;97656.59;;;21.14;50.64
5609;BME280;2826;51.354;9.588;2023-05-10T12:51:32;97663.00;;;20.92;52.79
5609;BME280;2826;51.354;9.588;2023-05-10T12:53:59;97663.38;;;20.57;58.19
5609;BME280;2826;51.354;9.588;2023-05-10T12:56:27;97678.97;;;19.88;61.76
5609;BME280;2826;51.354;9.588;2023-05-10T12:58:54;97684.22;;;19.57;63.53
5609;BME280;2826;51.354;9.588;2023-05-10T13:01:20;97691.94;;;19.27;66.44
5609;BME280;2826;51.354;9.588;2023-05-10T13:03:47;97693.78;;;19.04;66.05
5609;BME280;2826;51.354;9.588;2023-05-10T13:06:14;97717.78;;;18.78;67.22
5609;BME280;2826;51.354;9.588;2023-05-10T13:08:40;97719.41;;;18.46;70.43
5609;BME280;2826;51.354;9.588;2023-05-10T13:11:07;97720.94;;;17.80;74.61
5609;BME280;2826;51.354;9.588;2023-05-10T13:13:35;97719.09;;;17.35;76.64
5609;BME280;2826;51.354;9.588;2023-05-10T13:16:01;97722.69;;;16.85;79.79
5609;BME280;2826;51.354;9.588;2023-05-10T13:18:28;97738.03;;;16.65;81.10
5609;BME280;2826;51.354;9.588;2023-05-10T13:20:54;97730.84;;;16.56;83.42
5609;BME280;2826;51.354;9.588;2023-05-10T13:23:21;97730.03;;;16.55;85.14
5609;BME280;2826;51.354;9.588;2023-05-10T13:25:48;97725.19;;;16.62;85.18
5609;BME280;2826;51.354;9.588;2023-05-10T13:28:15;97726.41;;;16.69;84.78
5609;BME280;2826;51.354;9.588;2023-05-10T13:30:43;97724.19;;;16.76;84.72